Time;durP1;ratioP1;P1;durP2;ratioP2;P2;SDS_P1;SDS_P2;PMS_P1;PMS_P2;Temp;Humidity;BMP_temperature;BMP_pressure;BME280_temperature;BME280_humidity;BME280_pressure;Samples;Min_cycle;Max_cycle;Signal;HPM_P1;HPM_P2
2022/08/21 00:02:25;;;;;;;8.70;3.85;;;20.70;64.20;;;;;;5017174;28;20022;-63
2022/08/21 00:04:51;;;;;;;9.27;4.10;;;20.60;64.00;;;;;;5017391;28;20089;-63
2022/08/21 00:07:20;;;;;;;8.00;3.92;;;20.60;64.10;;;;;;5017630;28;20030;-63
2022/08/21 00:09:46;;;;;;;9.38;4.35;;;20.60;64.20;;;;;;5025460;28;20450;-62
2022/08/21 00:12:13;;;;;;;7.10;3.50;;;20.60;64.30;;;;;;5019049;28;20088;-62
2022/08/21 00:14:39;;;;;;;8.18;4.20;;;20.60;64.30;;;;;;5016558;28;20147;-63
2022/08/21 00:17:05;;;;;;;9.10;4.28;;;20.60;64.40;;;;;;5016287;28;20029;-62
2022/08/21 00:19:31;;;;;;;7.65;3.70;;;20.60;64.50;;;;;;5013158;28;20033;-63
2022/08/21 00:21:57;;;;;;;9.05;4.57;;;20.50;64.50;;;;;;5015712;28;20054;-63
2022/08/21 00:24:24;;;;;;;8.90;3.83;;;20.50;64.60;;;;;;5016136;28;20116;-62
2022/08/21 00:26:49;;;;;;;8.68;3.97;;;20.50;64.70;;;;;;5020879;28;20188;-62
2022/08/21 00:29:15;;;;;;;8.15;3.78;;;20.50;64.80;;;;;;5020319;28;20112;-63
2022/08/21 00:31:42;;;;;;;8.63;4.10;;;20.50;64.90;;;;;;5017539;28;20037;-62
2022/08/21 00:34:08;;;;;;;9.30;4.28;;;20.40;64.90;;;;;;5020551;28;20041;-62
2022/08/21 00:36:35;;;;;;;9.15;4.28;;;20.40;65.00;;;;;;5028038;28;20065;-62
2022/08/21 00:39:03;;;;;;;7.18;3.67;;;20.40;65.00;;;;;;5018390;28;20121;-63
2022/08/21 00:41:29;;;;;;;8.35;4.18;;;20.40;65.10;;;;;;5016868;28;20053;-63
2022/08/21 00:43:55;;;;;;;7.47;3.88;;;20.40;65.20;;;;;;5016120;28;20033;-63
2022/08/21 00:46:20;;;;;;;7.13;3.60;;;20.40;65.20;;;;;;5025585;28;20029;-63
2022/08/21 00:48:46;;;;;;;9.50;4.53;;;20.40;65.30;;;;;;5016011;28;20030;-63
2022/08/21 00:51:22;;;;;;;7.30;3.83;;;20.40;65.30;;;;;;5029093;28;20376;-63
2022/08/21 00:53:52;;;;;;;9.70;3.83;;;20.30;65.40;;;;;;5016641;28;20048;-63
2022/08/21 00:56:18;;;;;;;7.90;4.00;;;20.30;65.40;;;;;;5032987;28;20409;-63
2022/08/21 00:58:45;;;;;;;7.38;3.88;;;20.30;65.50;;;;;;5024198;28;20030;-63
2022/08/21 01:01:11;;;;;;;8.98;3.92;;;20.20;65.50;;;;;;5023610;28;20447;-63
2022/08/21 01:03:38;;;;;;;7.63;3.80;;;20.30;65.60;;;;;;5020637;28;20391;-63
2022/08/21 01:06:04;;;;;;;9.20;4.70;;;20.20;65.60;;;;;;5032118;28;20120;-63
2022/08/21 01:08:31;;;;;;;8.13;4.05;;;20.20;65.70;;;;;;5026321;28;20026;-63
2022/08/21 01:10:59;;;;;;;8.93;4.75;;;20.20;66.40;;;;;;5023342;28;20363;-63
2022/08/21 01:13:27;;;;;;;9.18;4.68;;;20.20;65.80;;;;;;5024562;28;20508;-63
2022/08/21 01:15:55;;;;;;;9.43;4.60;;;20.20;65.90;;;;;;5025349;28;20030;-63
2022/08/21 01:18:21;;;;;;;9.68;4.45;;;20.20;65.90;;;;;;5016760;28;20081;-63
2022/08/21 01:21:18;;;;;;;12.45;5.47;;;20.10;65.90;;;;;;5034269;28;20108;-63
2022/08/21 01:23:48;;;;;;;8.82;4.70;;;20.10;65.90;;;;;;5013036;28;20046;-63
2022/08/21 01:26:16;;;;;;;8.57;4.50;;;20.10;66.00;;;;;;5031250;28;20120;-63
2022/08/21 01:29:00;;;;;;;9.95;4.72;;;20.10;66.00;;;;;;5022734;28;20033;-63
2022/08/21 01:31:27;;;;;;;9.80;4.38;;;20.10;66.00;;;;;;5024998;28;20045;-63
2022/08/21 01:33:54;;;;;;;8.23;4.35;;;20.00;66.10;;;;;;5020644;28;20092;-63
2022/08/21 01:36:20;;;;;;;9.35;3.92;;;20.00;66.10;;;;;;5015583;28;20040;-63
2022/08/21 01:38:46;;;;;;;8.75;4.53;;;20.10;66.00;;;;;;5015014;28;20030;-63
2022/08/21 01:41:13;;;;;;;10.35;4.50;;;20.10;66.00;;;;;;5032151;28;20420;-63
2022/08/21 01:43:38;;;;;;;8.13;4.43;;;20.10;66.70;;;;;;5019767;28;20100;-63
2022/08/21 01:46:04;;;;;;;9.05;5.07;;;20.00;65.90;;;;;;5015729;28;20034;-63
2022/08/21 01:48:30;;;;;;;8.02;4.32;;;20.10;65.90;;;;;;5032907;28;20057;-63
2022/08/21 01:50:57;;;;;;;7.80;4.03;;;20.10;65.80;;;;;;5014502;28;20072;-62
2022/08/21 01:53:22;;;;;;;8.48;4.07;;;20.00;65.70;;;;;;5027408;28;20034;-63
2022/08/21 01:55:48;;;;;;;9.57;4.43;;;20.00;65.70;;;;;;5020076;28;20029;-63
2022/08/21 01:58:14;;;;;;;10.90;4.38;;;20.10;65.70;;;;;;5027494;28;20329;-63
2022/08/21 02:00:39;;;;;;;8.05;4.05;;;20.10;65.60;;;;;;5023142;28;20083;-63
2022/08/21 02:03:05;;;;;;;8.05;4.32;;;20.00;65.50;;;;;;5030346;28;20060;-63
2022/08/21 02:05:32;;;;;;;7.93;4.35;;;20.00;65.40;;;;;;5022841;28;20026;-63
2022/08/21 02:07:58;;;;;;;8.48;4.20;;;20.00;65.40;;;;;;5018273;28;20030;-63
2022/08/21 02:10:28;;;;;;;9.32;4.28;;;20.00;65.40;;;;;;5013729;28;20029;-63
2022/08/21 02:12:55;;;;;;;7.40;4.38;;;20.00;65.40;;;;;;5027627;28;20071;-63
2022/08/21 02:15:21;;;;;;;9.57;4.60;;;20.00;65.40;;;;;;5021348;28;20072;-63
2022/08/21 02:17:56;;;;;;;8.23;4.30;;;20.00;65.40;;;;;;5024624;28;20040;-63
2022/08/21 02:20:30;;;;;;;9.52;4.55;;;19.90;65.30;;;;;;5026653;28;20358;-63
2022/08/21 02:22:55;;;;;;;9.20;4.90;;;20.00;65.30;;;;;;5022499;28;20029;-63
2022/08/21 02:25:23;;;;;;;9.13;3.95;;;19.90;65.30;;;;;;5023581;28;20172;-63
2022/08/21 02:27:49;;;;;;;8.38;4.20;;;19.90;65.30;;;;;;5021513;28;20030;-63
2022/08/21 02:30:19;;;;;;;8.93;4.43;;;19.90;65.30;;;;;;5017408;28;20328;-63
2022/08/21 02:32:45;;;;;;;8.02;4.75;;;19.90;65.40;;;;;;5027082;28;20447;-63
2022/08/21 02:35:11;;;;;;;9.05;4.32;;;19.90;65.40;;;;;;5021832;28;20049;-63
2022/08/21 02:38:05;;;;;;;8.52;4.43;;;19.90;65.40;;;;;;5025367;28;20033;-63
2022/08/21 02:40:34;;;;;;;8.48;4.72;;;19.90;65.40;;;;;;5021338;28;20096;-63
2022/08/21 02:43:00;;;;;;;8.25;4.35;;;19.80;65.40;;;;;;5024977;28;20143;-62
2022/08/21 02:45:28;;;;;;;9.23;5.03;;;19.80;65.50;;;;;;5017579;28;20041;-63
2022/08/21 02:47:59;;;;;;;10.43;5.13;;;19.80;65.50;;;;;;5023957;28;20029;-63
2022/08/21 02:50:32;;;;;;;9.88;5.35;;;19.80;65.50;;;;;;5023020;28;20061;-63
2022/08/21 02:52:58;;;;;;;8.45;5.18;;;19.80;65.60;;;;;;5022411;28;20022;-62
2022/08/21 02:55:29;;;;;;;9.30;4.72;;;19.70;65.60;;;;;;5021141;28;20026;-63
2022/08/21 02:57:56;;;;;;;8.70;4.80;;;19.70;65.60;;;;;;5020070;28;20047;-63
2022/08/21 03:00:23;;;;;;;11.68;5.00;;;19.70;65.60;;;;;;5022662;28;20022;-63
2022/08/21 03:02:50;;;;;;;8.27;5.18;;;19.70;65.70;;;;;;5018462;28;20029;-63
2022/08/21 03:05:18;;;;;;;8.65;4.82;;;19.70;65.80;;;;;;5023420;28;20383;-63
2022/08/21 03:07:46;;;;;;;9.57;4.55;;;19.70;65.90;;;;;;5027133;28;20061;-63
2022/08/21 03:10:12;;;;;;;11.45;5.13;;;19.70;66.00;;;;;;5028124;28;20045;-63
2022/08/21 03:12:37;;;;;;;8.18;4.70;;;19.70;66.00;;;;;;5015868;28;20057;-63
2022/08/21 03:15:10;;;;;;;11.20;4.57;;;19.60;66.00;;;;;;5016877;28;20133;-63
2022/08/21 03:17:36;;;;;;;7.47;4.22;;;19.60;66.10;;;;;;5008960;28;20451;-63
2022/08/21 03:20:04;;;;;;;11.07;5.18;;;19.60;66.20;;;;;;5013245;28;20026;-63
2022/08/21 03:22:29;;;;;;;8.43;4.82;;;19.60;66.30;;;;;;5021616;28;20018;-63
2022/08/21 03:24:57;;;;;;;10.13;4.60;;;19.50;66.30;;;;;;5018774;28;20462;-63
2022/08/21 03:27:26;;;;;;;9.70;4.57;;;19.50;66.40;;;;;;5018950;28;20044;-62
2022/08/21 03:29:52;;;;;;;8.05;4.50;;;19.50;66.50;;;;;;5025267;28;20037;-62
2022/08/21 03:32:19;;;;;;;9.45;4.90;;;19.50;66.50;;;;;;5018871;28;20037;-62
2022/08/21 03:34:45;;;;;;;9.20;5.22;;;19.50;66.60;;;;;;5020605;28;20156;-63
2022/08/21 03:37:12;;;;;;;8.43;4.85;;;19.50;66.70;;;;;;5017961;28;20116;-63
2022/08/21 03:39:38;;;;;;;8.25;4.63;;;19.40;66.70;;;;;;5025361;28;20064;-63
2022/08/21 03:42:04;;;;;;;9.52;4.90;;;19.40;66.80;;;;;;5015034;28;20037;-63
2022/08/21 03:44:30;;;;;;;8.50;4.40;;;19.40;66.90;;;;;;5031151;28;20040;-62
2022/08/21 03:46:57;;;;;;;9.27;4.75;;;19.30;66.90;;;;;;5010915;28;20029;-63
2022/08/21 03:49:23;;;;;;;9.40;4.47;;;19.30;66.90;;;;;;5015529;28;20477;-63
2022/08/21 03:51:49;;;;;;;10.02;4.78;;;19.30;66.90;;;;;;5021186;28;20500;-65
2022/08/21 03:54:14;;;;;;;7.47;4.45;;;19.30;67.00;;;;;;5032865;28;20120;-62
2022/08/21 03:56:40;;;;;;;8.93;4.75;;;19.30;67.10;;;;;;5026571;28;20367;-63
2022/08/21 03:59:06;;;;;;;9.70;5.10;;;19.20;67.10;;;;;;5028355;28;20028;-63
2022/08/21 04:01:32;;;;;;;7.38;4.65;;;19.20;67.20;;;;;;5025437;28;20033;-63
2022/08/21 04:03:58;;;;;;;7.80;4.35;;;19.20;67.30;;;;;;5034136;28;20763;-63
2022/08/21 04:06:25;;;;;;;8.27;4.70;;;19.20;67.30;;;;;;5029978;28;20025;-62
2022/08/21 04:08:51;;;;;;;9.55;5.10;;;19.20;67.30;;;;;;5029985;28;20044;-63
2022/08/21 04:11:16;;;;;;;9.20;4.70;;;19.20;67.40;;;;;;5029661;28;20033;-63
2022/08/21 04:13:42;;;;;;;8.48;4.93;;;19.10;67.40;;;;;;5037578;28;20132;-63
2022/08/21 04:16:08;;;;;;;9.05;5.43;;;19.10;67.40;;;;;;5032697;28;20022;-63
2022/08/21 04:18:33;;;;;;;9.55;4.88;;;19.10;67.50;;;;;;5010036;28;20116;-63
2022/08/21 04:21:01;;;;;;;9.07;5.22;;;19.10;67.50;;;;;;5023925;28;20363;-63
2022/08/21 04:23:27;;;;;;;11.18;4.97;;;19.10;67.60;;;;;;5036606;28;20029;-62
2022/08/21 04:25:54;;;;;;;9.80;5.18;;;19.00;67.60;;;;;;5033550;28;20087;-63
2022/08/21 04:28:20;;;;;;;8.82;5.10;;;19.00;67.60;;;;;;5019355;28;20151;-62
2022/08/21 04:30:46;;;;;;;11.20;4.95;;;19.00;67.60;;;;;;5026904;28;20466;-62
2022/08/21 04:33:13;;;;;;;11.43;4.72;;;19.00;67.70;;;;;;5021381;28;20030;-63
2022/08/21 04:35:38;;;;;;;10.23;5.78;;;19.00;67.70;;;;;;5029431;28;20022;-63
2022/08/21 04:38:04;;;;;;;8.20;4.43;;;19.00;67.70;;;;;;5015884;28;20344;-63
2022/08/21 04:40:29;;;;;;;9.45;5.20;;;19.00;67.80;;;;;;5014550;28;20412;-63
2022/08/21 04:43:00;;;;;;;8.30;4.40;;;18.90;67.80;;;;;;5029839;28;20029;-63
2022/08/21 04:45:32;;;;;;;8.43;4.63;;;19.00;67.80;;;;;;5019846;28;20052;-63
2022/08/21 04:48:00;;;;;;;9.15;4.63;;;18.90;67.80;;;;;;5007290;28;20342;-63
2022/08/21 04:50:39;;;;;;;7.18;3.85;;;19.00;67.80;;;;;;5028460;28;20030;-63
2022/08/21 04:53:09;;;;;;;9.63;4.43;;;18.90;67.80;;;;;;5029917;28;20060;-63
2022/08/21 04:55:35;;;;;;;9.82;4.45;;;18.90;67.70;;;;;;5024020;28;20025;-62
2022/08/21 04:58:01;;;;;;;8.20;4.70;;;18.90;67.70;;;;;;5028316;28;20040;-63
2022/08/21 05:00:26;;;;;;;8.75;4.72;;;18.90;67.70;;;;;;5029138;28;20359;-62
2022/08/21 05:02:56;;;;;;;8.57;4.32;;;18.90;67.70;;;;;;5025661;28;20022;-63
2022/08/21 05:05:23;;;;;;;9.65;4.38;;;18.90;67.70;;;;;;5016789;28;20030;-63
2022/08/21 05:07:49;;;;;;;8.10;4.10;;;18.90;68.40;;;;;;5014353;28;20370;-63
2022/08/21 05:10:15;;;;;;;7.40;4.15;;;18.90;67.70;;;;;;5016469;28;20057;-62
2022/08/21 05:12:43;;;;;;;7.78;4.30;;;18.90;67.70;;;;;;5022597;28;20125;-63
2022/08/21 05:15:11;;;;;;;7.97;4.00;;;18.90;67.60;;;;;;5023405;28;20442;-62
2022/08/21 05:17:37;;;;;;;8.57;4.40;;;18.90;67.60;;;;;;5032648;28;20034;-64
2022/08/21 05:20:04;;;;;;;8.15;4.35;;;18.90;67.60;;;;;;5031512;28;20128;-64
2022/08/21 05:22:29;;;;;;;8.38;4.35;;;19.00;67.60;;;;;;5021786;28;20029;-69
2022/08/21 05:24:57;;;;;;;8.98;4.40;;;19.00;67.60;;;;;;5029792;28;20092;-64
2022/08/21 05:27:22;;;;;;;9.45;3.88;;;19.00;67.50;;;;;;5035542;28;20506;-64
2022/08/21 05:29:48;;;;;;;7.45;4.22;;;19.00;67.50;;;;;;5028018;28;20026;-63
2022/08/21 05:32:14;;;;;;;9.13;4.40;;;19.00;67.50;;;;;;5014748;28;20036;-63
2022/08/21 05:34:40;;;;;;;8.82;4.35;;;19.10;67.60;;;;;;5025294;28;20367;-63
2022/08/21 05:37:05;;;;;;;8.02;5.00;;;19.10;67.60;;;;;;5034735;28;20014;-63
2022/08/21 05:39:31;;;;;;;11.50;5.28;;;19.10;67.60;;;;;;5025499;28;20106;-64
2022/08/21 05:41:57;;;;;;;9.60;4.47;;;19.10;67.60;;;;;;5020059;28;20021;-65
2022/08/21 05:44:23;;;;;;;8.73;4.60;;;19.10;67.60;;;;;;5036597;28;20029;-63
2022/08/21 05:46:48;;;;;;;8.45;4.70;;;19.20;67.70;;;;;;5011060;28;20057;-62
2022/08/21 05:49:14;;;;;;;9.75;4.80;;;19.20;67.60;;;;;;5022665;28;20022;-65
2022/08/21 05:51:41;;;;;;;8.57;4.55;;;19.30;67.70;;;;;;5025407;28;20473;-62
2022/08/21 05:54:07;;;;;;;8.80;4.82;;;19.30;67.60;;;;;;5034812;28;20485;-62
2022/08/21 05:56:33;;;;;;;9.35;5.78;;;19.40;67.70;;;;;;5024502;28;20120;-62
2022/08/21 05:58:58;;;;;;;8.85;5.65;;;19.40;67.70;;;;;;5017901;28;20113;-63
2022/08/21 06:01:24;;;;;;;8.93;6.15;;;19.50;67.70;;;;;;5013674;28;20026;-62
2022/08/21 06:03:50;;;;;;;11.02;6.38;;;19.60;67.60;;;;;;5029298;28;20117;-63
2022/08/21 06:06:16;;;;;;;11.40;6.80;;;19.70;67.40;;;;;;5005301;28;20033;-63
2022/08/21 06:08:42;;;;;;;10.98;6.65;;;19.70;67.10;;;;;;5013106;28;20471;-63
2022/08/21 06:11:08;;;;;;;9.57;6.13;;;19.90;67.10;;;;;;5019696;28;20037;-63
2022/08/21 06:13:35;;;;;;;11.20;6.43;;;20.60;66.60;;;;;;5035409;28;20034;-63
2022/08/21 06:16:11;;;;;;;8.93;6.22;;;21.60;63.60;;;;;;5026931;28;20435;-64
2022/08/21 06:18:38;;;;;;;8.57;5.70;;;22.60;61.10;;;;;;5022706;28;20032;-64
2022/08/21 06:21:04;;;;;;;10.48;6.05;;;23.30;59.60;;;;;;5015616;28;20362;-62
2022/08/21 06:23:30;;;;;;;11.52;5.90;;;23.50;58.80;;;;;;5035306;28;20039;-63
2022/08/21 06:25:56;;;;;;;10.25;5.35;;;23.50;58.70;;;;;;5026962;28;20026;-62
2022/08/21 06:28:22;;;;;;;9.35;5.30;;;23.40;58.90;;;;;;5028424;28;20029;-62
2022/08/21 06:30:48;;;;;;;10.75;5.90;;;23.20;59.10;;;;;;5014341;28;20026;-63
2022/08/21 06:33:14;;;;;;;11.88;5.85;;;23.00;59.20;;;;;;5021517;28;20336;-63
2022/08/21 06:35:40;;;;;;;12.75;6.53;;;22.80;59.40;;;;;;5023072;28;20044;-67
2022/08/21 06:38:06;;;;;;;9.23;5.82;;;22.70;59.60;;;;;;5008340;28;20018;-63
2022/08/21 06:40:32;;;;;;;11.18;5.85;;;22.60;59.70;;;;;;5010309;28;20017;-63
2022/08/21 06:43:04;;;;;;;11.63;5.38;;;22.60;59.60;;;;;;5015019;28;20030;-63
2022/08/21 06:45:30;;;;;;;9.88;5.88;;;22.60;59.60;;;;;;5026502;28;20014;-63
2022/08/21 06:47:55;;;;;;;10.38;5.93;;;22.60;59.60;;;;;;5010590;28;20418;-63
2022/08/21 06:50:21;;;;;;;11.27;5.47;;;22.60;59.50;;;;;;5028580;28;20029;-63
2022/08/21 06:52:46;;;;;;;9.15;5.10;;;22.60;59.40;;;;;;5015809;28;20084;-63
2022/08/21 06:55:12;;;;;;;10.05;5.60;;;22.60;59.50;;;;;;5012923;28;20022;-64
2022/08/21 06:57:38;;;;;;;9.30;4.85;;;22.60;59.30;;;;;;5020551;28;20104;-64
2022/08/21 07:00:06;;;;;;;9.88;5.22;;;22.80;59.20;;;;;;5018686;28;20110;-65
2022/08/21 07:02:33;;;;;;;11.48;5.00;;;22.90;59.00;;;;;;5022348;28;20029;-65
2022/08/21 07:04:59;;;;;;;11.38;4.90;;;23.00;58.80;;;;;;5023163;28;20048;-65
2022/08/21 07:07:24;;;;;;;9.57;4.38;;;23.10;58.50;;;;;;5033630;28;20025;-65
2022/08/21 07:09:50;;;;;;;9.95;4.85;;;23.30;58.30;;;;;;5033478;28;20183;-64
2022/08/21 07:12:16;;;;;;;9.63;5.03;;;23.40;58.10;;;;;;5033299;28;20099;-65
2022/08/21 07:14:42;;;;;;;14.65;4.82;;;23.60;57.70;;;;;;5032893;28;20041;-65
2022/08/21 07:17:08;;;;;;;11.13;5.30;;;23.80;57.40;;;;;;5034020;28;20029;-65
2022/08/21 07:19:33;;;;;;;13.60;5.20;;;23.90;57.10;;;;;;5022856;28;20018;-65
2022/08/21 07:22:01;;;;;;;13.15;4.97;;;23.90;57.00;;;;;;5034426;28;20423;-65
2022/08/21 07:24:27;;;;;;;12.77;5.03;;;23.90;56.90;;;;;;5034543;28;20105;-65
2022/08/21 07:26:53;;;;;;;9.52;5.00;;;24.00;56.70;;;;;;5034617;28;20053;-65
2022/08/21 07:29:19;;;;;;;9.82;4.57;;;24.20;56.60;;;;;;5033706;28;20057;-65
2022/08/21 07:31:45;;;;;;;10.30;4.97;;;24.20;56.40;;;;;;5023312;28;20093;-65
2022/08/21 07:34:10;;;;;;;13.55;5.35;;;24.30;56.30;;;;;;5027930;28;20038;-65
2022/08/21 07:36:36;;;;;;;9.68;4.00;;;24.40;56.30;;;;;;5034842;28;20028;-65
2022/08/21 07:39:02;;;;;;;10.98;5.28;;;24.60;56.10;;;;;;5019338;28;20446;-65
2022/08/21 07:41:29;;;;;;;9.32;4.75;;;24.70;55.80;;;;;;5034496;28;20022;-65
2022/08/21 07:43:58;;;;;;;10.27;4.78;;;24.80;55.70;;;;;;5034613;28;20105;-65
2022/08/21 07:46:25;;;;;;;10.20;4.55;;;24.90;55.50;;;;;;5025750;28;20079;-65
2022/08/21 07:48:51;;;;;;;7.47;3.85;;;25.00;55.30;;;;;;5030926;28;20039;-65
2022/08/21 07:51:18;;;;;;;10.60;4.53;;;25.10;55.20;;;;;;5033237;28;20034;-65
2022/08/21 07:53:52;;;;;;;10.40;4.90;;;25.30;55.10;;;;;;5033410;28;20033;-65
2022/08/21 07:56:18;;;;;;;12.48;5.07;;;25.40;54.70;;;;;;5022694;28;20029;-65
2022/08/21 07:58:44;;;;;;;8.88;4.18;;;25.50;54.60;;;;;;5034300;28;20025;-65
2022/08/21 08:01:10;;;;;;;11.43;4.50;;;25.60;54.50;;;;;;5027107;28;20351;-65
2022/08/21 08:03:36;;;;;;;10.43;4.40;;;25.50;54.50;;;;;;5013683;28;20085;-65
2022/08/21 08:06:04;;;;;;;12.18;4.60;;;25.30;54.80;;;;;;5032233;28;20025;-65
2022/08/21 08:08:30;;;;;;;11.65;5.15;;;25.10;55.20;;;;;;5020684;28;20028;-65
2022/08/21 08:10:57;;;;;;;8.93;4.88;;;24.80;55.60;;;;;;5031352;28;20025;-65
2022/08/21 08:13:23;;;;;;;8.82;4.35;;;24.60;56.10;;;;;;5034014;28;20107;-66
2022/08/21 08:15:49;;;;;;;11.85;4.57;;;24.40;56.50;;;;;;5029223;28;20037;-65
2022/08/21 08:18:14;;;;;;;12.60;4.18;;;24.50;56.50;;;;;;5033158;28;20060;-65
2022/08/21 08:20:40;;;;;;;8.75;4.28;;;24.70;56.40;;;;;;5032812;28;20042;-67
2022/08/21 08:23:09;;;;;;;10.95;4.13;;;24.90;56.10;;;;;;5029538;28;20443;-65
2022/08/21 08:25:35;;;;;;;10.57;4.25;;;25.00;56.10;;;;;;5033115;28;20409;-65
2022/08/21 08:28:00;;;;;;;11.90;4.68;;;24.90;56.30;;;;;;5033110;28;20108;-65
2022/08/21 08:30:26;;;;;;;9.93;4.20;;;25.10;56.20;;;;;;5033094;28;20267;-66
2022/08/21 08:32:51;;;;;;;13.65;5.13;;;25.30;55.90;;;;;;5033125;28;20045;-65
2022/08/21 08:35:17;;;;;;;10.55;4.43;;;25.30;55.80;;;;;;5032998;28;20030;-65
2022/08/21 08:37:45;;;;;;;10.73;4.35;;;25.40;55.60;;;;;;5034294;28;20022;-65
2022/08/21 08:40:39;;;;;;;11.15;4.22;;;25.50;55.50;;;;;;5027968;28;20037;-65
2022/08/21 08:43:05;;;;;;;12.40;4.13;;;25.70;55.60;;;;;;5012073;28;20045;-65
2022/08/21 08:45:36;;;;;;;10.18;3.38;;;25.90;55.30;;;;;;5036333;28;20369;-65
2022/08/21 08:48:07;;;;;;;8.45;3.45;;;26.00;55.00;;;;;;5037484;28;20068;-65
2022/08/21 08:50:53;;;;;;;8.73;3.72;;;26.20;54.80;;;;;;5037365;28;20095;-65
2022/08/21 08:53:31;;;;;;;8.73;3.65;;;26.40;54.40;;;;;;5036613;28;20021;-65
2022/08/21 08:55:57;;;;;;;11.80;4.35;;;26.50;54.00;;;;;;5029651;28;20103;-65
2022/08/21 08:58:31;;;;;;;9.15;3.33;;;26.60;53.80;;;;;;5036692;28;20072;-65
2022/08/21 09:00:58;;;;;;;10.68;3.72;;;26.70;53.70;;;;;;5036540;28;20096;-65
2022/08/21 09:03:25;;;;;;;12.32;3.67;;;26.70;53.50;;;;;;5036367;28;20423;-65
2022/08/21 09:06:18;;;;;;;10.20;4.07;;;26.80;53.30;;;;;;5037506;28;20041;-65
2022/08/21 09:09:08;;;;;;;7.38;3.20;;;26.80;53.00;;;;;;5026401;28;20042;-65
2022/08/21 09:12:02;;;;;;;9.13;3.08;;;26.80;53.00;;;;;;5010556;28;20510;-65
2022/08/21 09:14:44;;;;;;;8.50;3.17;;;26.70;53.10;;;;;;5033138;28;20482;-66
2022/08/21 09:17:31;;;;;;;9.18;3.30;;;26.60;53.20;;;;;;5036234;28;20033;-65
2022/08/21 09:20:11;;;;;;;9.32;2.92;;;26.70;52.90;;;;;;5036962;28;20199;-65
2022/08/21 09:23:10;;;;;;;9.40;3.05;;;26.80;52.80;;;;;;5037115;28;20025;-65
2022/08/21 09:25:50;;;;;;;6.78;2.65;;;27.00;52.50;;;;;;5037279;28;20032;-65
2022/08/21 09:28:15;;;;;;;9.35;3.10;;;27.10;52.10;;;;;;5036980;28;20021;-65
2022/08/21 09:30:41;;;;;;;7.43;2.40;;;27.00;52.00;;;;;;5025390;28;20477;-65
2022/08/21 09:33:11;;;;;;;9.77;3.03;;;27.10;52.00;;;;;;5036567;28;20052;-65
2022/08/21 09:35:47;;;;;;;7.35;2.25;;;27.30;51.80;;;;;;5037059;28;20030;-65
2022/08/21 09:38:25;;;;;;;5.97;2.20;;;27.30;51.50;;;;;;5035688;28;20033;-66
2022/08/21 09:40:57;;;;;;;6.75;2.38;;;27.40;50.90;;;;;;5036654;28;20434;-65
2022/08/21 09:43:27;;;;;;;9.27;2.33;;;27.30;50.70;;;;;;5022835;28;20084;-65
2022/08/21 09:46:12;;;;;;;6.57;2.28;;;27.20;50.80;;;;;;5017687;28;20029;-66
2022/08/21 09:48:41;;;;;;;6.38;1.88;;;27.20;50.60;;;;;;5036550;28;20029;-65
2022/08/21 09:51:11;;;;;;;10.55;2.70;;;27.30;50.60;;;;;;5017371;28;20124;-65
2022/08/21 09:53:42;;;;;;;7.63;2.40;;;27.60;50.50;;;;;;5016536;28;20062;-65
2022/08/21 09:59:17;;;;;;;10.13;2.85;;;28.00;49.50;;;;;;5005216;28;20462;-66
2022/08/21 10:01:45;;;;;;;7.25;2.08;;;28.10;49.00;;;;;;5017483;28;20105;-65
2022/08/21 10:04:11;;;;;;;6.03;1.75;;;28.10;48.80;;;;;;5015251;28;20058;-66
2022/08/21 10:06:37;;;;;;;8.60;2.53;;;28.10;48.70;;;;;;5036294;28;20171;-66
2022/08/21 10:09:12;;;;;;;8.48;2.38;;;28.00;48.80;;;;;;5036315;28;20053;-65
2022/08/21 10:11:39;;;;;;;7.45;2.10;;;28.00;48.80;;;;;;5035981;28;20025;-66
2022/08/21 10:14:29;;;;;;;6.30;2.00;;;28.00;48.70;;;;;;5028828;28;20124;-66
2022/08/21 10:17:06;;;;;;;6.38;2.10;;;27.90;48.50;;;;;;5036329;28;20067;-66
2022/08/21 10:19:55;;;;;;;6.18;1.75;;;27.60;48.80;;;;;;5034923;28;20029;-66
2022/08/21 10:22:55;;;;;;;6.20;1.90;;;27.50;48.70;;;;;;5035938;28;20033;-65
2022/08/21 10:25:31;;;;;;;5.25;1.60;;;27.50;48.60;;;;;;5034796;28;20440;-66
2022/08/21 10:28:31;;;;;;;7.57;1.80;;;27.50;48.60;;;;;;5035903;28;20029;-66
2022/08/21 10:31:21;;;;;;;7.57;1.98;;;27.70;48.20;;;;;;5027886;28;20078;-66
2022/08/21 10:34:13;;;;;;;6.13;1.75;;;27.90;48.10;;;;;;5035540;28;20357;-66
2022/08/21 10:36:49;;;;;;;7.50;2.05;;;28.10;47.60;;;;;;5021493;28;20410;-66
2022/08/21 10:39:28;;;;;;;8.23;2.35;;;28.10;47.30;;;;;;5035882;28;20035;-66
2022/08/21 10:42:02;;;;;;;5.72;1.67;;;27.90;47.20;;;;;;5034464;28;20048;-66
2022/08/21 10:44:28;;;;;;;8.25;1.85;;;27.90;47.20;;;;;;5016699;28;20034;-66
2022/08/21 10:47:08;;;;;;;6.13;1.75;;;27.70;47.50;;;;;;5029355;28;20427;-66
2022/08/21 10:49:50;;;;;;;8.10;2.03;;;27.50;47.70;;;;;;5034468;28;20034;-66
2022/08/21 10:52:43;;;;;;;7.80;1.75;;;27.30;47.80;;;;;;5034568;28;20377;-66
2022/08/21 10:55:20;;;;;;;5.55;1.75;;;27.40;47.50;;;;;;5035504;28;20029;-66
2022/08/21 10:58:00;;;;;;;8.00;2.00;;;27.60;47.30;;;;;;5034493;28;20022;-66
2022/08/21 11:00:53;;;;;;;6.95;1.90;;;27.90;47.00;;;;;;5021197;28;20038;-66
2022/08/21 11:03:31;;;;;;;4.00;1.58;;;28.20;46.60;;;;;;5025229;28;20040;-66
2022/08/21 11:06:10;;;;;;;6.22;1.88;;;28.40;46.30;;;;;;5034122;28;20431;-66
2022/08/21 11:08:43;;;;;;;6.60;1.63;;;28.30;46.30;;;;;;5035583;28;20029;-66
2022/08/21 11:11:18;;;;;;;4.43;1.70;;;28.30;46.10;;;;;;5035253;28;20033;-66
2022/08/21 11:13:59;;;;;;;7.32;1.58;;;28.30;46.00;;;;;;5035395;28;20394;-66
2022/08/21 11:16:24;;;;;;;9.27;1.80;;;28.40;45.80;;;;;;5012693;28;20040;-65
2022/08/21 11:19:04;;;;;;;8.32;2.00;;;28.50;45.90;;;;;;5020204;28;20037;-66
2022/08/21 11:21:39;;;;;;;6.70;1.60;;;28.50;45.70;;;;;;5035333;28;20470;-66
2022/08/21 11:24:17;;;;;;;5.38;2.03;;;28.40;45.80;;;;;;5032863;28;20040;-66
2022/08/21 11:26:49;;;;;;;5.97;1.80;;;28.40;45.40;;;;;;5031897;28;20029;-66
2022/08/21 11:29:26;;;;;;;5.45;1.90;;;28.30;45.40;;;;;;5035521;28;20048;-66
2022/08/21 11:32:07;;;;;;;7.25;2.25;;;28.00;45.60;;;;;;5033887;28;20091;-66
2022/08/21 11:34:49;;;;;;;3.95;1.38;;;27.80;45.50;;;;;;5035051;28;20079;-66
2022/08/21 11:37:21;;;;;;;7.45;1.80;;;27.50;45.60;;;;;;5035034;28;20036;-66
2022/08/21 11:39:52;;;;;;;5.28;1.60;;;27.30;45.90;;;;;;5025788;28;20420;-66
2022/08/21 11:42:32;;;;;;;6.55;1.88;;;27.10;46.10;;;;;;5032579;28;20036;-66
2022/08/21 11:45:25;;;;;;;5.00;1.67;;;27.00;46.50;;;;;;5034724;28;20030;-66
2022/08/21 11:48:16;;;;;;;6.05;1.75;;;26.90;46.80;;;;;;5035066;28;20033;-66
2022/08/21 11:50:43;;;;;;;;;;;27.10;46.40;;;;;;5035364;28;20037;-66
2022/08/21 11:53:26;;;;;;;4.90;1.70;;;27.20;46.30;;;;;;5023716;28;20262;-66
2022/08/21 11:56:17;;;;;;;6.03;1.67;;;27.40;46.00;;;;;;5033186;28;20395;-66
2022/08/21 11:58:47;;;;;;;;;;;27.70;45.70;;;;;;5031961;28;20079;-66
2022/08/21 12:01:18;;;;;;;5.82;1.80;;;27.90;45.70;;;;;;5003057;28;19909;-66
2022/08/21 12:04:06;;;;;;;6.00;1.95;;;28.00;45.10;;;;;;5027357;28;20573;-66
2022/08/21 12:06:41;;;;;;;6.93;1.77;;;28.20;44.80;;;;;;5035150;28;20030;-66
2022/08/21 12:09:10;;;;;;;7.07;1.90;;;28.30;44.80;;;;;;5034722;28;20481;-66
2022/08/21 12:11:49;;;;;;;5.38;1.98;;;28.30;44.50;;;;;;5034517;28;20098;-66
2022/08/21 12:14:18;;;;;;;5.45;1.25;;;28.30;44.70;;;;;;5012314;28;20042;-66
2022/08/21 12:16:46;;;;;;;5.53;1.55;;;28.40;44.80;;;;;;5015069;28;20120;-66
2022/08/21 12:19:20;;;;;;;8.13;1.67;;;28.40;44.70;;;;;;5036131;28;20354;-66
2022/08/21 12:22:11;;;;;;;7.40;1.70;;;28.40;44.30;;;;;;5038534;28;20029;-66
2022/08/21 12:24:40;;;;;;;6.00;1.63;;;28.20;44.10;;;;;;5038103;28;20065;-66
2022/08/21 12:27:28;;;;;;;6.13;1.50;;;28.10;44.30;;;;;;5038587;28;20025;-66
2022/08/21 12:30:01;;;;;;;6.10;1.70;;;27.90;44.20;;;;;;5026600;28;20045;-66
2022/08/21 12:32:40;;;;;;;3.25;1.33;;;27.90;44.30;;;;;;5038689;28;20401;-66
2022/08/21 12:35:14;;;;;;;8.23;1.90;;;27.90;44.50;;;;;;5038239;28;20123;-66
2022/08/21 12:37:45;;;;;;;5.75;1.30;;;27.70;44.50;;;;;;5038024;28;20458;-66
2022/08/21 12:40:34;;;;;;;7.65;1.80;;;27.60;44.70;;;;;;5038070;28;20033;-66
2022/08/21 12:43:03;;;;;;;6.95;1.58;;;27.60;44.70;;;;;;5027430;28;20037;-66
2022/08/21 12:45:39;;;;;;;4.35;1.35;;;27.70;44.70;;;;;;5038176;28;20022;-66
2022/08/21 12:48:14;;;;;;;4.50;1.40;;;27.70;44.30;;;;;;5029526;28;20037;-67
2022/08/21 12:51:08;;;;;;;4.25;1.60;;;27.80;44.30;;;;;;5033939;28;20037;-66
2022/08/21 12:53:45;;;;;;;5.03;1.52;;;27.90;44.00;;;;;;5013157;28;20038;-67
2022/08/21 12:56:14;;;;;;;4.88;1.60;;;27.90;43.90;;;;;;5011642;28;20029;-67
2022/08/21 12:58:44;;;;;;;5.35;1.77;;;27.90;43.90;;;;;;5012672;28;20038;-67
2022/08/21 13:01:30;;;;;;;6.65;1.90;;;27.90;43.80;;;;;;5022714;28;20034;-67
2022/08/21 13:04:00;;;;;;;3.55;1.60;;;27.80;43.80;;;;;;5013423;28;20034;-67
2022/08/21 13:06:29;;;;;;;6.47;2.13;;;27.80;44.00;;;;;;5027055;28;20037;-67